Аэропорт: Абакан. Абакан

ICAO: UNAA

METAR:
2022-06-26 10:00:00
UNAA 261000Z 23002MPS 190V260 CAVOK 35/10 Q1000 R20/CLRD65 NOSIG RMK QFE728
METAR:
2022-06-26 07:57:00
TAF UNAA 260757Z 2609/2709 22003G08MPS CAVOK FM261200 21003G08MPS 9999 SCT020CB TEMPO 2621/2709 23008G18MPS -TSRA